Time;durP1;ratioP1;P1;durP2;ratioP2;P2;SDS_P1;SDS_P2;PMS_P1;PMS_P2;Temp;Humidity;BMP_temperature;BMP_pressure;BME280_temperature;BME280_humidity;BME280_pressure;Samples;Min_cycle;Max_cycle;Signal;HPM_P1;HPM_P2
2023/09/21 00:00:49;;;;;;;2.25;1.70;;;;;;;21.22;52.07;98514.59;4952974;29;20130;-81
2023/09/21 00:03:16;;;;;;;3.35;1.80;;;;;;;21.22;52.07;98509.25;4952370;28;20057;-74
2023/09/21 00:05:46;;;;;;;3.95;1.60;;;;;;;21.22;52.18;98498.53;4952863;29;20071;-79
2023/09/21 00:08:13;;;;;;;2.03;1.63;;;;;;;21.21;52.12;98502.25;4951718;29;20522;-79
2023/09/21 00:10:39;;;;;;;2.65;1.63;;;;;;;21.23;51.95;98502.03;4952998;29;20051;-77
2023/09/21 00:13:06;;;;;;;2.80;1.70;;;;;;;21.22;52.09;98495.03;4952315;29;20051;-77
2023/09/21 00:15:33;;;;;;;2.70;1.70;;;;;;;21.21;51.97;98486.19;4953082;29;20047;-75
2023/09/21 00:18:00;;;;;;;2.90;1.70;;;;;;;21.22;51.98;98487.84;4952947;29;20060;-80
2023/09/21 00:20:30;;;;;;;2.20;1.73;;;;;;;21.21;52.15;98486.19;4952739;29;20055;-76
2023/09/21 00:22:59;;;;;;;3.17;1.90;;;;;;;21.21;52.10;98483.50;4952013;29;20051;-76
2023/09/21 00:25:28;;;;;;;3.17;1.80;;;;;;;21.20;51.76;98479.16;4952587;29;20575;-76
2023/09/21 00:27:54;;;;;;;2.08;1.63;;;;;;;21.21;52.22;98474.63;4951428;29;20047;-76
2023/09/21 00:30:21;;;;;;;5.13;1.58;;;;;;;21.22;51.89;98476.28;4952687;28;20069;-76
2023/09/21 00:32:48;;;;;;;4.32;1.80;;;;;;;21.21;52.24;98477.31;4950917;29;20052;-86
2023/09/21 00:35:16;;;;;;;3.50;1.83;;;;;;;21.20;52.08;98473.81;4952243;29;20093;-74
2023/09/21 00:37:43;;;;;;;2.92;1.85;;;;;;;21.21;52.03;98472.81;4952427;29;20571;-75
2023/09/21 00:40:16;;;;;;;2.67;1.58;;;;;;;21.20;52.06;98462.28;4952668;29;20063;-77
2023/09/21 00:42:47;;;;;;;4.53;1.60;;;;;;;21.21;52.07;98456.75;4951027;29;20100;-79
2023/09/21 00:45:14;;;;;;;3.45;1.83;;;;;;;21.24;51.98;98452.03;4952509;29;20086;-76
2023/09/21 00:47:46;;;;;;;4.78;1.88;;;;;;;21.22;52.01;98444.19;4952659;29;20059;-74
2023/09/21 00:50:13;;;;;;;4.68;1.80;;;;;;;21.24;51.72;98444.00;4952380;29;20519;-77
2023/09/21 00:52:42;;;;;;;2.25;1.70;;;;;;;21.22;51.83;98439.66;4952333;29;20130;-77
2023/09/21 00:55:13;;;;;;;1.88;1.45;;;;;;;21.21;51.92;98432.66;4951807;29;20572;-75
2023/09/21 00:57:41;;;;;;;3.03;1.52;;;;;;;21.24;51.96;98430.63;4951355;29;20051;-75
2023/09/21 01:00:16;;;;;;;2.50;1.73;;;;;;;21.23;51.77;98427.09;4951826;29;20063;-76
2023/09/21 01:02:43;;;;;;;2.53;1.70;;;;;;;21.24;51.72;98425.25;4952467;29;20063;-77
2023/09/21 01:05:12;;;;;;;2.33;1.45;;;;;;;21.24;51.79;98425.25;4952505;29;20058;-75
2023/09/21 01:07:42;;;;;;;5.05;1.88;;;;;;;21.24;51.68;98422.59;4952431;29;20091;-77
2023/09/21 01:10:13;;;;;;;2.08;1.58;;;;;;;21.24;51.70;98419.91;4952196;28;20057;-81
2023/09/21 01:12:43;;;;;;;2.33;1.50;;;;;;;21.24;51.67;98406.53;4950977;29;20527;-76
2023/09/21 01:15:11;;;;;;;3.33;1.90;;;;;;;21.25;51.60;98410.84;4953332;28;20058;-75
2023/09/21 01:17:45;;;;;;;2.50;1.92;;;;;;;21.25;51.32;98406.34;4956160;29;20059;-78
2023/09/21 01:20:22;;;;;;;4.35;1.95;;;;;;;21.25;51.72;98402.81;4955919;29;20055;-82
2023/09/21 01:23:12;;;;;;;3.35;1.67;;;;;;;21.19;51.85;98402.56;4955401;29;20130;-76
2023/09/21 01:25:41;;;;;;;2.45;1.52;;;;;;;21.24;51.58;98401.19;4955646;29;20431;-77
2023/09/21 01:28:09;;;;;;;3.03;1.85;;;;;;;21.22;51.65;98396.00;4955649;29;20051;-75
2023/09/21 01:30:37;;;;;;;2.90;1.75;;;;;;;21.20;51.69;98392.72;4955470;29;20460;-77
2023/09/21 01:33:08;;;;;;;3.40;1.80;;;;;;;21.18;51.73;98384.88;4946558;29;20052;-76
2023/09/21 01:35:36;;;;;;;3.28;1.67;;;;;;;21.17;51.77;98385.91;4955326;29;20059;-76
2023/09/21 01:38:06;;;;;;;2.65;1.67;;;;;;;21.14;51.59;98386.28;4955288;29;20055;-78
2023/09/21 01:40:34;;;;;;;5.60;1.98;;;;;;;21.15;51.74;98379.91;4954566;29;20460;-77
2023/09/21 01:43:17;;;;;;;1.85;1.42;;;;;;;21.11;51.70;98377.81;4954486;28;20047;-79
2023/09/21 01:45:48;;;;;;;2.97;1.63;;;;;;;21.14;51.77;98380.06;4955324;29;20047;-75
2023/09/21 01:48:18;;;;;;;4.05;1.50;;;;;;;21.13;51.65;98375.75;4953952;29;20551;-78
2023/09/21 01:50:50;;;;;;;4.03;1.90;;;;;;;21.11;51.86;98367.09;4955316;28;20134;-82
2023/09/21 01:53:19;;;;;;;2.22;1.45;;;;;;;21.09;51.73;98376.13;4953237;29;20054;-74
2023/09/21 01:55:47;;;;;;;5.05;1.80;;;;;;;21.08;51.75;98362.94;4954927;29;20061;-78
2023/09/21 01:58:15;;;;;;;2.15;1.77;;;;;;;21.07;51.86;98359.44;4954043;29;20047;-76
2023/09/21 02:00:46;;;;;;;3.90;1.77;;;;;;;21.05;51.93;98350.78;4953913;29;20055;-77
2023/09/21 02:03:17;;;;;;;3.47;1.73;;;;;;;21.05;51.93;98356.13;4954464;28;20043;-75
2023/09/21 02:05:46;;;;;;;2.92;1.77;;;;;;;21.04;51.88;98349.13;4955001;29;20047;-76
2023/09/21 02:08:13;;;;;;;2.10;1.63;;;;;;;21.03;51.85;98355.50;4954797;29;20055;-79
2023/09/21 02:10:40;;;;;;;2.92;1.50;;;;;;;21.01;51.92;98341.47;4954792;29;20043;-75
2023/09/21 02:13:07;;;;;;;4.57;1.75;;;;;;;21.00;51.85;98344.38;4953920;29;20051;-78
2023/09/21 02:15:37;;;;;;;2.25;1.73;;;;;;;21.00;51.92;98344.38;4954745;29;20083;-75
2023/09/21 02:18:07;;;;;;;2.75;1.88;;;;;;;20.97;52.05;98340.19;4954907;29;20063;-76
2023/09/21 02:20:35;;;;;;;2.20;1.80;;;;;;;20.96;51.96;98335.88;4954716;29;20047;-78
2023/09/21 02:23:02;;;;;;;4.80;1.70;;;;;;;20.94;51.78;98333.38;4953950;29;20051;-79
2023/09/21 02:25:34;;;;;;;2.50;1.50;;;;;;;20.93;51.88;98331.72;4954246;28;20094;-76
2023/09/21 02:28:09;;;;;;;2.72;1.77;;;;;;;20.93;51.73;98329.06;4952721;29;20568;-75
2023/09/21 02:30:44;;;;;;;3.20;1.85;;;;;;;20.91;51.95;98331.09;4954546;29;20083;-78
2023/09/21 02:33:12;;;;;;;2.20;1.63;;;;;;;20.92;51.93;98326.56;4953825;29;20058;-75
2023/09/21 02:35:41;;;;;;;4.00;1.58;;;;;;;20.92;51.95;98321.22;4954090;29;20051;-78
2023/09/21 02:38:09;;;;;;;2.53;1.83;;;;;;;20.91;52.00;98325.75;4953310;29;20055;-79
2023/09/21 02:40:36;;;;;;;3.28;1.77;;;;;;;20.90;51.96;98313.38;4954473;28;20138;-75
2023/09/21 02:43:03;;;;;;;1.92;1.40;;;;;;;20.91;51.86;98316.91;4953749;29;20047;-80
2023/09/21 02:45:29;;;;;;;1.80;1.35;;;;;;;20.90;51.93;98307.22;4954276;29;20091;-76
2023/09/21 02:48:00;;;;;;;3.72;1.90;;;;;;;20.90;52.11;98310.72;4954081;29;20051;-74
2023/09/21 02:50:28;;;;;;;4.68;1.90;;;;;;;20.90;52.04;98308.03;4954020;29;20054;-79
2023/09/21 02:53:06;;;;;;;3.22;1.58;;;;;;;20.90;51.93;98301.88;4954222;29;20133;-77
2023/09/21 02:55:34;;;;;;;3.47;1.70;;;;;;;20.92;51.96;98289.13;4953897;29;20047;-76
2023/09/21 02:58:15;;;;;;;3.05;1.80;;;;;;;20.89;51.79;98282.31;4952698;29;20094;-75
2023/09/21 03:00:44;;;;;;;3.35;1.33;;;;;;;20.92;51.85;98286.44;4953630;29;20145;-78
2023/09/21 03:03:16;;;;;;;3.08;1.83;;;;;;;20.89;51.87;98279.63;4953747;28;20047;-76
2023/09/21 03:05:47;;;;;;;6.00;1.67;;;;;;;20.90;51.91;98278.63;4952707;29;20051;-74
2023/09/21 03:08:16;;;;;;;3.10;1.52;;;;;;;20.89;51.83;98274.28;4952581;29;20080;-77
2023/09/21 03:10:49;;;;;;;3.80;1.60;;;;;;;20.88;52.01;98277.16;4953240;29;20512;-75
2023/09/21 03:13:18;;;;;;;3.85;1.83;;;;;;;20.89;51.90;98276.97;4953352;29;20052;-78
2023/09/21 03:15:50;;;;;;;2.83;1.70;;;;;;;20.87;51.72;98272.78;4953613;29;20051;-79
2023/09/21 03:18:21;;;;;;;4.20;1.70;;;;;;;20.87;52.03;98270.13;4953800;29;20055;-79
2023/09/21 03:20:51;;;;;;;7.43;1.92;;;;;;;20.88;51.94;98271.81;4951950;29;20047;-75
2023/09/21 03:23:18;;;;;;;2.83;1.70;;;;;;;20.86;51.96;98263.13;4953403;29;20073;-75
2023/09/21 03:25:47;;;;;;;2.10;1.63;;;;;;;20.84;51.90;98268.66;4952116;29;20050;-77
2023/09/21 03:28:15;;;;;;;3.30;1.60;;;;;;;20.83;51.85;98264.34;4953482;29;20153;-79
2023/09/21 03:30:44;;;;;;;3.58;1.85;;;;;;;20.83;52.01;98264.34;4952990;29;20055;-76
2023/09/21 03:33:11;;;;;;;3.63;1.60;;;;;;;20.81;51.65;98261.84;4953053;29;20055;-76
2023/09/21 03:35:38;;;;;;;2.80;1.85;;;;;;;20.82;51.80;98260.00;4953118;29;20057;-79
2023/09/21 03:38:06;;;;;;;4.03;2.10;;;;;;;20.80;51.90;98260.19;4952922;28;20055;-75
2023/09/21 03:40:33;;;;;;;2.50;1.67;;;;;;;20.80;51.78;98254.00;4952661;28;20047;-77
2023/09/21 03:43:00;;;;;;;3.55;1.75;;;;;;;20.79;51.90;98261.19;4952982;29;20047;-75
2023/09/21 03:45:26;;;;;;;2.05;1.60;;;;;;;20.78;51.79;98250.72;4953188;29;20158;-77
2023/09/21 03:47:53;;;;;;;3.45;2.08;;;;;;;20.79;51.65;98252.38;4953013;29;20073;-78
2023/09/21 03:50:25;;;;;;;2.60;1.55;;;;;;;20.78;51.75;98251.53;4952795;29;20122;-75
2023/09/21 03:52:53;;;;;;;1.88;1.38;;;;;;;20.78;51.90;98248.03;4933578;29;20044;-78
2023/09/21 03:55:20;;;;;;;2.08;1.55;;;;;;;20.78;51.95;98245.38;4933986;29;20539;-75
2023/09/21 03:57:47;;;;;;;3.00;1.83;;;;;;;20.77;52.00;98244.53;4933123;29;20139;-75
2023/09/21 04:02:48;;;;;;;3.10;1.80;;;;;;;20.75;51.74;98233.19;4953054;29;20385;-84
2023/09/21 04:05:20;;;;;;;2.38;1.60;;;;;;;20.73;51.99;98240.59;4952772;28;20058;-75
2023/09/21 04:07:47;;;;;;;4.20;1.60;;;;;;;20.73;52.14;98237.91;4953227;29;20138;-76
2023/09/21 04:10:15;;;;;;;2.53;1.50;;;;;;;20.71;51.68;98229.28;4952967;29;20055;-81
2023/09/21 04:12:43;;;;;;;2.97;1.63;;;;;;;20.69;51.73;98236.63;4952766;28;20061;-75
2023/09/21 04:15:11;;;;;;;2.95;1.70;;;;;;;20.68;51.61;98227.78;4952296;28;20393;-76
2023/09/21 04:17:39;;;;;;;3.10;1.85;;;;;;;20.68;51.71;98226.97;4952841;29;20110;-76
2023/09/21 04:20:12;;;;;;;2.05;1.30;;;;;;;20.65;51.90;98225.50;4952625;29;20130;-74
2023/09/21 04:22:41;;;;;;;2.08;1.50;;;;;;;20.66;51.67;98220.97;4952802;29;20057;-75
2023/09/21 04:25:09;;;;;;;5.05;1.90;;;;;;;20.64;52.00;98218.47;4952061;29;20480;-76
2023/09/21 04:27:44;;;;;;;3.20;1.70;;;;;;;20.61;51.59;98218.88;4952781;29;20059;-74
2023/09/21 04:30:16;;;;;;;2.67;1.42;;;;;;;20.62;51.71;98217.03;4952818;29;20061;-75
2023/09/21 04:32:47;;;;;;;1.67;1.43;;;;;;;20.63;51.79;98218.69;4952816;28;20063;-75
2023/09/21 04:35:17;;;;;;;2.85;1.35;;;;;;;20.62;52.12;98219.69;4952668;29;20051;-79
2023/09/21 04:37:45;;;;;;;3.50;1.52;;;;;;;20.61;51.84;98216.22;4952829;29;20062;-81
2023/09/21 04:40:12;;;;;;;2.10;1.50;;;;;;;20.59;51.56;98204.88;4952735;29;20048;-75
2023/09/21 04:42:40;;;;;;;4.55;1.73;;;;;;;20.59;51.92;98217.41;4952503;29;20500;-75
2023/09/21 04:45:09;;;;;;;3.65;1.95;;;;;;;20.59;51.92;98207.53;4952210;29;20122;-78
2023/09/21 04:47:40;;;;;;;3.53;1.85;;;;;;;20.57;51.85;98206.91;4951408;29;20055;-76
2023/09/21 04:50:09;;;;;;;2.70;1.67;;;;;;;20.56;52.01;98195.38;4953943;28;20065;-79
2023/09/21 04:52:36;;;;;;;4.47;1.52;;;;;;;20.57;51.96;98205.06;4956244;29;20399;-76
2023/09/21 04:55:08;;;;;;;2.40;1.80;;;;;;;20.56;51.79;98198.06;4955990;29;20689;-75
2023/09/21 04:57:38;;;;;;;8.40;1.90;;;;;;;20.55;51.78;98198.25;4949032;29;20047;-82
2023/09/21 05:00:10;;;;;;;2.90;1.50;;;;;;;20.56;51.92;98198.06;4956050;29;20081;-75
2023/09/21 05:02:37;;;;;;;2.17;1.60;;;;;;;20.57;51.81;98201.56;4955934;29;20044;-76
2023/09/21 05:05:04;;;;;;;2.20;1.73;;;;;;;20.57;51.80;98198.91;4955863;28;20063;-79
2023/09/21 05:07:30;;;;;;;2.42;1.60;;;;;;;20.57;51.88;98197.03;4955863;29;20055;-76
2023/09/21 05:09:57;;;;;;;5.03;1.90;;;;;;;20.59;51.90;98188.03;4954211;29;20047;-78
2023/09/21 05:12:24;;;;;;;3.03;1.80;;;;;;;20.58;52.04;98203.22;4936839;29;20044;-76
2023/09/21 05:14:50;;;;;;;2.75;1.85;;;;;;;20.60;51.99;98201.19;4936351;29;20412;-75
2023/09/21 05:17:18;;;;;;;2.60;1.70;;;;;;;20.61;52.07;98196.66;4936541;29;20496;-75
2023/09/21 05:19:44;;;;;;;2.65;1.58;;;;;;;20.62;51.88;98191.13;4939914;29;20059;-81
2023/09/21 05:22:11;;;;;;;3.35;1.80;;;;;;;20.64;51.85;98189.06;4954997;29;20531;-75
2023/09/21 05:24:38;;;;;;;2.38;1.70;;;;;;;20.66;51.80;98189.72;4955163;29;20054;-75
2023/09/21 05:27:06;;;;;;;5.05;1.80;;;;;;;20.67;51.71;98194.03;4954453;29;20061;-79
2023/09/21 05:29:33;;;;;;;3.78;1.95;;;;;;;20.69;51.77;98186.69;4955507;29;20559;-80
2023/09/21 05:31:59;;;;;;;2.10;1.60;;;;;;;20.70;51.59;98176.78;4955244;28;20055;-76
2023/09/21 05:34:29;;;;;;;4.57;1.70;;;;;;;20.70;51.59;98185.66;4955452;28;20059;-76
2023/09/21 05:36:56;;;;;;;2.35;1.40;;;;;;;20.73;51.64;98189.78;4955581;29;20118;-76
2023/09/21 05:39:23;;;;;;;3.88;1.73;;;;;;;;;;4955303;29;20137;-76
2023/09/21 05:41:51;;;;;;;3.72;1.75;;;;;;;20.75;51.43;98190.41;4955297;29;20047;-81
2023/09/21 05:44:21;;;;;;;3.33;1.67;;;;;;;20.77;51.72;98192.88;4953960;29;20543;-78
2023/09/21 05:46:51;;;;;;;2.67;1.80;;;;;;;20.78;51.56;98187.34;4955325;29;20062;-82
2023/09/21 05:49:24;;;;;;;2.67;2.00;;;;;;;20.80;51.46;98188.00;4955367;29;20074;-78
2023/09/21 05:51:56;;;;;;;3.28;1.77;;;;;;;20.83;51.55;98178.75;4954773;29;20051;-76
2023/09/21 05:54:23;;;;;;;3.28;1.52;;;;;;;20.85;51.74;98176.72;4955399;28;20047;-78
2023/09/21 05:56:53;;;;;;;2.80;1.38;;;;;;;20.86;51.41;98181.03;4955449;28;20055;-80
2023/09/21 05:59:22;;;;;;;2.88;1.60;;;;;;;20.89;51.67;98182.56;4955182;28;20051;-75
2023/09/21 06:01:49;;;;;;;2.83;1.50;;;;;;;20.91;51.55;98175.97;4954402;28;20059;-77
2023/09/21 06:04:17;;;;;;;2.97;1.70;;;;;;;20.94;51.34;98180.13;4954807;28;20134;-76
2023/09/21 06:06:45;;;;;;;3.10;1.80;;;;;;;20.96;51.44;98178.06;4955306;29;20404;-76
2023/09/21 06:09:18;;;;;;;2.35;1.88;;;;;;;20.96;51.49;98186.91;4955105;29;20555;-77
2023/09/21 06:11:46;;;;;;;4.07;1.90;;;;;;;20.99;51.17;98174.16;4954804;28;20056;-76
2023/09/21 06:14:12;;;;;;;3.45;1.50;;;;;;;21.00;51.44;98173.16;4954729;29;20163;-76
2023/09/21 06:16:41;;;;;;;4.10;1.88;;;;;;;21.01;51.35;98180.16;4954744;29;20055;-77
2023/09/21 06:19:11;;;;;;;3.53;1.80;;;;;;;21.03;51.32;98186.13;4954847;29;20063;-80
2023/09/21 06:21:39;;;;;;;2.65;1.65;;;;;;;21.05;51.54;98187.59;4954037;29;20552;-78
2023/09/21 06:24:09;;;;;;;4.63;1.58;;;;;;;21.07;51.33;98192.75;4954315;29;20055;-77
2023/09/21 06:26:37;;;;;;;3.08;1.75;;;;;;;21.11;51.39;98187.84;4954431;29;20062;-79
2023/09/21 06:29:04;;;;;;;2.75;1.85;;;;;;;21.14;51.45;98184.78;4954341;29;20051;-77
2023/09/21 06:31:32;;;;;;;2.03;1.58;;;;;;;21.14;51.48;98185.59;4952661;29;20492;-79
2023/09/21 06:33:59;;;;;;;4.43;1.77;;;;;;;21.15;51.23;98181.91;4954196;29;20055;-81
2023/09/21 06:36:28;;;;;;;2.03;1.65;;;;;;;21.15;51.17;98176.56;4954294;29;20051;-78
2023/09/21 06:38:58;;;;;;;4.18;2.10;;;;;;;21.14;51.16;98180.25;4954440;29;20053;-77
2023/09/21 06:41:25;;;;;;;1.90;1.52;;;;;;;21.15;51.13;98178.41;4954104;29;20039;-77
2023/09/21 06:43:52;;;;;;;2.40;1.55;;;;;;;21.15;51.40;98176.56;4953517;29;20559;-78
2023/09/21 06:46:21;;;;;;;3.15;1.60;;;;;;;21.15;51.42;98173.06;4953996;29;20447;-78
2023/09/21 06:48:48;;;;;;;2.47;1.60;;;;;;;21.16;51.31;98183.53;4953986;29;20551;-84
2023/09/21 06:51:15;;;;;;;2.85;1.75;;;;;;;21.18;51.47;98189.53;4952573;29;20054;-83
2023/09/21 06:53:43;;;;;;;3.35;1.77;;;;;;;21.19;51.62;98193.88;4953512;28;20051;-84
2023/09/21 06:56:11;;;;;;;4.45;2.08;;;;;;;21.19;51.46;98185.84;4953963;29;20137;-78
2023/09/21 06:58:38;;;;;;;3.03;1.73;;;;;;;21.21;51.51;98199.03;4954035;29;20055;-79
2023/09/21 07:01:05;;;;;;;2.58;1.50;;;;;;;21.24;51.80;98193.28;4953700;28;20125;-76
2023/09/21 07:03:32;;;;;;;3.80;1.90;;;;;;;21.28;51.74;98191.03;4952701;29;20480;-78
2023/09/21 07:06:00;;;;;;;3.53;1.80;;;;;;;21.32;51.84;98197.66;4953744;29;20488;-77
2023/09/21 07:08:26;;;;;;;3.13;1.70;;;;;;;21.37;51.80;98197.88;4952462;29;20122;-78
2023/09/21 07:10:53;;;;;;;3.67;2.08;;;;;;;21.42;51.55;98194.63;4953480;29;20415;-77
2023/09/21 07:13:20;;;;;;;3.35;1.55;;;;;;;21.48;51.77;98197.34;4952484;28;20082;-78
2023/09/21 07:15:52;;;;;;;5.30;2.03;;;;;;;21.55;52.02;98199.22;4953520;29;20047;-77
2023/09/21 07:18:20;;;;;;;2.42;1.40;;;;;;;21.61;51.78;98187.75;4953663;29;20132;-77
2023/09/21 07:20:47;;;;;;;4.65;1.60;;;;;;;21.69;51.72;98179.53;4953435;29;20054;-76
2023/09/21 07:23:14;;;;;;;4.10;1.67;;;;;;;21.78;51.57;98184.72;4952912;28;20083;-78
2023/09/21 07:25:40;;;;;;;1.98;1.45;;;;;;;21.84;51.72;98182.13;4953296;29;20058;-78
2023/09/21 07:28:07;;;;;;;3.65;1.60;;;;;;;21.90;51.30;98185.00;4953472;29;20051;-77
2023/09/21 07:30:35;;;;;;;3.80;1.80;;;;;;;21.94;51.15;98179.03;4952123;29;20047;-78
2023/09/21 07:33:02;;;;;;;2.05;1.60;;;;;;;21.99;51.36;98176.56;4951512;29;20043;-77
2023/09/21 07:35:29;;;;;;;2.90;1.70;;;;;;;22.02;51.17;98183.41;4953315;29;20054;-79
2023/09/21 07:37:56;;;;;;;2.10;1.63;;;;;;;22.07;51.45;98182.78;4953020;29;20218;-77
2023/09/21 07:40:27;;;;;;;2.65;1.90;;;;;;;22.10;51.07;98177.84;4953343;29;20055;-77
2023/09/21 07:42:53;;;;;;;4.07;1.75;;;;;;;22.15;51.06;98166.53;4952699;29;20097;-77
2023/09/21 07:45:22;;;;;;;5.35;1.80;;;;;;;22.18;51.05;98167.97;4953081;29;20079;-77
2023/09/21 07:47:49;;;;;;;8.57;1.95;;;;;;;22.22;51.29;98162.03;4953049;29;20047;-81
2023/09/21 07:50:18;;;;;;;4.72;1.90;;;;;;;22.26;51.50;98157.06;4953148;29;20051;-77
2023/09/21 07:52:48;;;;;;;5.00;2.08;;;;;;;22.32;51.18;98163.47;4952847;29;20062;-77
2023/09/21 07:55:14;;;;;;;3.92;1.67;;;;;;;22.37;51.53;98163.69;4952552;29;20437;-78
2023/09/21 07:57:41;;;;;;;5.18;1.73;;;;;;;22.41;51.88;98156.91;4952650;29;20109;-77
2023/09/21 08:00:13;;;;;;;4.43;1.75;;;;;;;22.47;51.56;98164.09;4952972;28;20091;-78
2023/09/21 08:02:40;;;;;;;2.85;1.77;;;;;;;22.55;51.24;98173.03;4952852;28;20055;-79
2023/09/21 08:05:09;;;;;;;3.17;1.83;;;;;;;22.59;51.44;98172.41;4952166;29;20456;-76
2023/09/21 08:07:37;;;;;;;4.32;1.88;;;;;;;22.65;51.11;98173.44;4953004;29;20062;-77
2023/09/21 08:10:04;;;;;;;3.38;1.70;;;;;;;22.69;51.30;98171.19;4952780;29;20416;-76
2023/09/21 08:12:31;;;;;;;3.25;1.75;;;;;;;22.70;51.17;98170.97;4952940;29;20051;-82
2023/09/21 08:14:59;;;;;;;3.05;1.80;;;;;;;22.72;50.87;98171.59;4951052;29;20077;-79
2023/09/21 08:17:26;;;;;;;2.17;1.67;;;;;;;22.74;51.17;98171.38;4952653;29;20091;-76
2023/09/21 08:19:53;;;;;;;2.55;1.58;;;;;;;22.75;50.79;98167.66;4952957;29;20071;-80
2023/09/21 08:22:19;;;;;;;4.57;1.90;;;;;;;22.75;50.91;98176.56;4952972;29;20070;-79
2023/09/21 08:24:46;;;;;;;3.10;2.13;;;;;;;22.76;51.15;98170.16;4952982;28;20051;-77
2023/09/21 08:27:13;;;;;;;3.00;1.58;;;;;;;22.77;51.19;98171.78;4956856;29;20139;-76
2023/09/21 08:29:41;;;;;;;3.30;1.50;;;;;;;22.77;51.01;98171.78;4956620;29;20563;-78
2023/09/21 08:32:09;;;;;;;3.17;1.92;;;;;;;22.78;50.95;98178.00;4956471;29;20054;-77
2023/09/21 08:34:36;;;;;;;2.70;1.60;;;;;;;22.81;51.33;98182.13;4956159;29;20080;-81
2023/09/21 08:37:03;;;;;;;2.65;1.60;;;;;;;22.84;51.39;98184.41;4956350;28;20051;-81
2023/09/21 08:39:29;;;;;;;2.92;1.75;;;;;;;22.87;51.29;98178.59;4956589;29;20633;-77
2023/09/21 08:41:56;;;;;;;3.40;1.85;;;;;;;22.91;51.46;98179.84;4956553;29;20149;-85
2023/09/21 08:44:24;;;;;;;5.38;1.80;;;;;;;22.95;51.55;98175.69;4956273;29;20060;-83
2023/09/21 08:46:52;;;;;;;3.08;1.90;;;;;;;22.98;51.05;98183.34;4955987;29;20055;-79
2023/09/21 08:49:19;;;;;;;2.30;1.58;;;;;;;23.02;51.10;98173.84;4955313;29;20142;-79
2023/09/21 08:51:47;;;;;;;1.90;1.70;;;;;;;23.08;51.03;98187.47;4955191;29;20482;-77
2023/09/21 08:54:16;;;;;;;3.80;1.70;;;;;;;23.14;51.19;98190.13;4954928;29;20095;-78
2023/09/21 08:56:46;;;;;;;1.85;1.60;;;;;;;23.19;51.20;98184.16;4954369;29;20496;-81
2023/09/21 08:59:15;;;;;;;2.80;1.77;;;;;;;23.25;51.21;98187.88;4955732;29;20122;-77
2023/09/21 09:01:42;;;;;;;3.92;1.80;;;;;;;23.31;51.23;98187.03;4956089;29;20094;-77
2023/09/21 09:04:09;;;;;;;4.80;1.80;;;;;;;23.37;51.19;98191.59;4955593;29;20047;-78
2023/09/21 09:06:37;;;;;;;2.25;1.80;;;;;;;23.45;51.30;98195.91;4956087;29;20055;-77
2023/09/21 09:09:05;;;;;;;5.13;1.55;;;;;;;23.52;51.31;98183.28;4955659;29;20134;-77
2023/09/21 09:11:40;;;;;;;1.73;1.50;;;;;;;23.60;50.99;98181.41;4955573;29;20070;-77
2023/09/21 09:14:13;;;;;;;5.40;1.90;;;;;;;23.71;51.24;98193.34;4954539;29;20078;-81
2023/09/21 09:16:41;;;;;;;2.38;1.60;;;;;;;23.81;51.46;98181.13;4954639;29;20047;-78
2023/09/21 09:19:09;;;;;;;5.72;1.80;;;;;;;23.94;51.34;98196.38;4955787;29;20051;-79
2023/09/21 09:21:35;;;;;;;3.08;2.15;;;;;;;24.05;51.27;98196.72;4954118;29;20048;-78
2023/09/21 09:24:02;;;;;;;3.33;2.10;;;;;;;24.16;50.63;98196.09;4955327;29;20055;-78
2023/09/21 09:26:29;;;;;;;2.88;1.77;;;;;;;24.26;50.87;98182.16;4955613;29;20051;-76
2023/09/21 09:29:06;;;;;;;3.65;1.92;;;;;;;24.34;50.71;98189.97;4955668;29;20143;-77
2023/09/21 09:31:40;;;;;;;3.10;1.77;;;;;;;24.47;50.33;98188.25;4955447;28;20052;-77
2023/09/21 09:34:07;;;;;;;2.70;1.63;;;;;;;24.60;50.63;98187.34;4955515;29;20073;-78
2023/09/21 09:36:34;;;;;;;3.08;1.65;;;;;;;24.69;50.19;98195.94;4954625;28;20484;-80
2023/09/21 09:39:01;;;;;;;3.38;2.28;;;;;;;24.75;49.91;98184.34;4955500;29;20050;-79
2023/09/21 09:41:31;;;;;;;1.88;1.58;;;;;;;24.82;49.59;98189.66;4954961;29;20094;-77
2023/09/21 09:43:59;;;;;;;2.97;1.88;;;;;;;24.87;49.89;98181.78;4955312;29;20055;-78
2023/09/21 09:46:26;;;;;;;5.45;1.67;;;;;;;24.91;49.87;98182.97;4955158;29;20093;-76
2023/09/21 09:49:01;;;;;;;4.82;2.25;;;;;;;24.95;49.43;98183.34;4955065;29;20141;-80
2023/09/21 09:51:47;;;;;;;3.38;2.15;;;;;;;24.98;49.43;98188.31;4954584;29;20043;-77
2023/09/21 09:54:14;;;;;;;5.82;1.70;;;;;;;25.07;49.24;98184.28;4954974;29;20090;-79
2023/09/21 09:56:41;;;;;;;4.45;1.83;;;;;;;25.11;49.44;98182.81;4955201;29;20142;-76
2023/09/21 09:59:10;;;;;;;3.55;2.08;;;;;;;25.17;49.18;98182.94;4954916;29;20047;-76
2023/09/21 10:01:39;;;;;;;2.35;1.60;;;;;;;25.22;49.20;98191.19;4954361;29;20044;-77
2023/09/21 10:04:07;;;;;;;6.95;2.33;;;;;;;25.29;49.22;98191.13;4954823;28;20078;-80
2023/09/21 10:06:37;;;;;;;5.45;2.25;;;;;;;25.32;48.70;98188.81;4955099;29;20055;-78
2023/09/21 10:09:10;;;;;;;5.95;2.10;;;;;;;25.35;49.04;98184.84;4953537;29;20055;-79
2023/09/21 10:11:42;;;;;;;3.13;1.83;;;;;;;25.38;48.79;98193.31;4952189;29;20059;-80
2023/09/21 10:14:11;;;;;;;4.00;2.28;;;;;;;25.42;48.98;98193.66;4954409;29;20047;-76
2023/09/21 10:16:38;;;;;;;8.13;2.20;;;;;;;25.44;48.66;98185.38;4954566;29;20059;-78
2023/09/21 10:19:16;;;;;;;7.47;2.30;;;;;;;25.39;48.18;98183.38;4954810;29;20051;-76
2023/09/21 10:21:45;;;;;;;2.40;1.98;;;;;;;25.41;48.67;98178.56;4954160;29;20055;-79
2023/09/21 10:24:12;;;;;;;4.15;2.10;;;;;;;25.40;48.42;98184.16;4954238;29;20135;-77
2023/09/21 10:26:43;;;;;;;8.43;2.58;;;;;;;25.34;48.36;98186.72;4954678;29;20063;-77
2023/09/21 10:29:12;;;;;;;2.42;1.80;;;;;;;25.33;48.65;98189.63;4954684;29;20066;-79
2023/09/21 10:31:43;;;;;;;2.13;1.80;;;;;;;25.28;48.99;98189.47;4954057;28;20067;-81
2023/09/21 10:34:12;;;;;;;3.30;1.48;;;;;;;25.25;48.83;98185.34;4954164;29;20059;-78
2023/09/21 10:36:51;;;;;;;3.65;1.85;;;;;;;25.20;48.90;98177.13;4954271;29;20145;-78
2023/09/21 10:39:25;;;;;;;4.30;1.67;;;;;;;25.18;48.63;98176.50;4954183;29;20051;-81
2023/09/21 10:41:55;;;;;;;2.63;1.65;;;;;;;25.13;48.81;98165.59;4954044;29;20047;-77
2023/09/21 10:45:07;;;;;;;3.03;1.60;;;;;;;25.04;49.03;98167.75;4954188;29;20484;-79
2023/09/21 10:47:49;;;;;;;1.98;1.70;;;;;;;25.01;49.22;98165.50;4953245;28;20087;-77
2023/09/21 10:50:23;;;;;;;3.55;1.80;;;;;;;25.00;48.97;98170.06;4954027;29;20717;-79
2023/09/21 10:52:51;;;;;;;2.75;1.70;;;;;;;25.00;49.22;98163.88;4952303;29;20158;-77
2023/09/21 10:55:20;;;;;;;4.60;1.75;;;;;;;24.98;48.91;98166.78;4953969;29;20047;-76
2023/09/21 10:57:49;;;;;;;3.88;1.80;;;;;;;24.94;49.26;98168.25;4953902;28;20066;-78
2023/09/21 11:00:17;;;;;;;2.45;1.60;;;;;;;24.91;49.22;98161.47;4954338;29;20062;-77
2023/09/21 11:02:46;;;;;;;4.40;1.85;;;;;;;24.89;49.13;98168.09;4953431;28;20052;-77
2023/09/21 11:05:17;;;;;;;2.85;1.85;;;;;;;24.87;49.29;98160.25;4953905;28;20439;-79
2023/09/21 11:07:46;;;;;;;3.22;1.90;;;;;;;24.87;49.66;98167.47;4953908;29;20094;-76
2023/09/21 11:10:14;;;;;;;2.28;1.60;;;;;;;24.88;49.73;98158.34;4953628;29;20539;-79
2023/09/21 11:12:41;;;;;;;4.28;1.70;;;;;;;24.90;49.91;98158.97;4953272;28;20134;-77
2023/09/21 11:15:16;;;;;;;3.03;1.70;;;;;;;24.90;50.17;98161.66;4953657;29;20122;-79
2023/09/21 11:17:44;;;;;;;5.47;1.92;;;;;;;24.98;50.12;98158.69;4953725;29;20126;-77
2023/09/21 11:20:14;;;;;;;3.10;1.80;;;;;;;25.02;50.00;98154.53;4952464;29;20137;-77
2023/09/21 11:22:43;;;;;;;4.65;2.22;;;;;;;25.07;50.26;98157.38;4953033;29;20051;-78
2023/09/21 11:25:11;;;;;;;2.22;1.60;;;;;;;25.13;49.94;98152.97;4932650;29;20062;-77
2023/09/21 11:27:41;;;;;;;4.15;1.70;;;;;;;25.17;49.42;98156.03;4934422;29;20055;-76
2023/09/21 11:30:11;;;;;;;3.35;1.45;;;;;;;25.20;49.48;98145.63;4934325;29;20095;-77
2023/09/21 11:32:49;;;;;;;2.83;1.60;;;;;;;25.19;49.56;98152.06;4939205;29;20409;-78
2023/09/21 11:35:18;;;;;;;3.08;1.60;;;;;;;25.22;49.74;98146.25;4953478;29;20047;-81
2023/09/21 11:37:50;;;;;;;2.47;1.58;;;;;;;25.21;49.25;98143.78;4953341;28;20126;-78
2023/09/21 11:40:24;;;;;;;2.95;1.45;;;;;;;25.23;49.43;98147.06;4953247;29;20058;-76
2023/09/21 11:42:56;;;;;;;2.88;1.45;;;;;;;25.20;48.98;98147.50;4952792;29;20515;-76
2023/09/21 11:45:27;;;;;;;2.00;1.40;;;;;;;25.23;49.50;98141.69;4951828;29;20061;-77